Time;durP1;ratioP1;P1;durP2;ratioP2;P2;SDS_P1;SDS_P2;PMS_P1;PMS_P2;Temp;Humidity;BMP_temperature;BMP_pressure;BME280_temperature;BME280_humidity;BME280_pressure;Samples;Min_cycle;Max_cycle;Signal;HPM_P1;HPM_P2
2021/12/14 00:01:24;;;;;;;18.67;11.45;;;;;;;0.87;95.54;100085.45;1778696;80;20853;-67
2021/12/14 00:03:57;;;;;;;17.52;11.05;;;;;;;0.87;95.72;100085.45;1779470;80;20916;-67
2021/12/14 00:06:25;;;;;;;17.82;11.60;;;;;;;0.91;95.86;100092.06;1779167;80;20903;-67
2021/12/14 00:09:00;;;;;;;;;;;;;;;0.94;95.82;100094.81;1782254;80;21796;-67
2021/12/14 00:11:48;;;;;;;16.02;10.50;;;;;;;0.97;95.83;100093.00;1779311;80;20145;-67
2021/12/14 00:16:40;;;;;;;16.48;10.38;;;;;;;0.89;95.21;100095.55;1735729;82;20995;-66
2021/12/14 00:19:09;;;;;;;19.07;12.05;;;;;;;0.85;95.44;100097.91;1779226;80;21117;-67
2021/12/14 00:21:35;;;;;;;16.73;11.22;;;;;;;0.88;95.62;100102.05;1778922;80;21159;-67
2021/12/14 00:24:06;;;;;;;16.60;10.98;;;;;;;0.87;95.38;100099.03;1775777;80;21456;-67
2021/12/14 00:26:45;;;;;;;15.83;9.85;;;;;;;0.81;95.28;100104.07;1736424;81;21037;-67
2021/12/14 00:29:26;;;;;;;18.52;11.28;;;;;;;0.81;95.34;100101.36;1735474;81;21051;-67
2021/12/14 00:31:54;;;;;;;17.75;10.70;;;;;;;0.80;95.25;100101.08;1712078;81;21016;-67
2021/12/14 00:34:36;;;;;;;19.90;11.15;;;;;;;0.82;95.45;100098.95;1742629;81;20960;-67
2021/12/14 00:36:53;;;;;;;18.35;10.95;;;;;;;0.85;95.52;100099.83;1758554;81;20948;-67
2021/12/14 00:39:19;;;;;;;18.87;11.53;;;;;;;0.88;95.64;100093.91;1760421;81;20996;-67
2021/12/14 00:41:47;;;;;;;15.83;10.28;;;;;;;0.90;95.59;100090.42;1712201;81;20960;-67
2021/12/14 00:44:15;;;;;;;16.55;10.88;;;;;;;0.91;95.57;100093.42;1760140;81;20853;-67
2021/12/14 00:46:43;;;;;;;17.70;10.43;;;;;;;0.92;95.44;100092.34;1759991;81;21128;-68
2021/12/14 00:49:11;;;;;;;19.52;11.30;;;;;;;0.86;95.20;100093.31;1760091;81;20976;-68
2021/12/14 00:51:39;;;;;;;19.32;11.25;;;;;;;0.81;95.19;100091.33;1759947;81;21194;-67
2021/12/14 00:54:11;;;;;;;21.15;11.73;;;;;;;0.83;95.40;100089.22;1760353;81;20900;-68
2021/12/14 00:56:40;;;;;;;18.48;10.58;;;;;;;0.87;95.56;100086.81;1760039;81;21035;-67
2021/12/14 00:59:08;;;;;;;17.80;10.93;;;;;;;0.87;95.27;100087.37;1760321;81;21134;-68
2021/12/14 01:02:03;;;;;;;17.85;10.63;;;;;;;0.84;95.28;100086.78;1773337;80;20853;-68
2021/12/14 01:04:35;;;;;;;18.73;11.70;;;;;;;0.83;95.15;100091.09;1773841;80;20908;-67
2021/12/14 01:07:02;;;;;;;18.35;11.00;;;;;;;0.80;95.05;100095.65;1773534;80;20952;-67
2021/12/14 01:09:32;;;;;;;18.85;11.15;;;;;;;0.77;95.21;100096.14;1773883;81;21021;-68
2021/12/14 01:12:07;;;;;;;20.02;11.08;;;;;;;0.74;95.21;100090.64;1773724;80;21132;-68
2021/12/14 01:14:42;;;;;;;14.38;9.10;;;;;;;0.69;95.18;100092.73;1751612;81;20956;-67
2021/12/14 01:17:26;;;;;;;22.58;12.58;;;;;;;0.59;95.09;100100.65;1773667;80;21441;-68
2021/12/14 01:19:55;;;;;;;21.85;11.38;;;;;;;0.50;95.20;100101.55;1772045;80;20913;-68
2021/12/14 01:25:19;;;;;;;18.42;11.20;;;;;;;0.50;95.68;100106.13;1726894;81;20987;-67
2021/12/14 01:28:00;;;;;;;20.80;11.73;;;;;;;0.50;95.79;100104.25;1769086;81;21476;-67
2021/12/14 01:30:56;;;;;;;17.17;11.05;;;;;;;0.52;96.02;100108.91;1769139;81;21008;-68
2021/12/14 01:33:15;;;;;;;19.07;10.05;;;;;;;0.57;96.25;100108.19;1767968;80;20973;-67
2021/12/14 01:35:46;;;;;;;19.52;10.13;;;;;;;0.60;96.16;100110.42;1751634;81;20948;-67
2021/12/14 01:38:21;;;;;;;18.95;11.18;;;;;;;0.59;96.12;100107.43;1751451;81;21029;-67
2021/12/14 01:40:56;;;;;;;17.27;10.48;;;;;;;0.53;95.91;100111.11;1751599;81;20967;-67
2021/12/14 01:43:39;;;;;;;19.07;11.43;;;;;;;0.48;96.39;100106.38;1768655;80;20972;-67
2021/12/14 01:46:14;;;;;;;18.42;10.78;;;;;;;0.51;96.69;100108.63;1766454;80;21508;-67
2021/12/14 01:48:42;;;;;;;17.45;9.70;;;;;;;0.51;96.69;100111.87;1768860;80;20949;-68
2021/12/14 01:51:31;;;;;;;17.92;10.30;;;;;;;0.46;96.61;100117.46;1750487;81;21770;-67
2021/12/14 01:54:00;;;;;;;;;;;;;;;0.48;96.96;100116.70;1771585;80;20918;-67
2021/12/14 01:56:28;;;;;;;20.65;11.38;;;;;;;0.57;97.23;100117.69;1769466;81;20426;-67
2021/12/14 01:59:09;;;;;;;18.27;10.20;;;;;;;0.62;97.22;100115.08;1769216;81;20944;-67
2021/12/14 02:01:43;;;;;;;16.67;10.93;;;;;;;0.67;97.21;100111.64;1769381;81;21004;-67
2021/12/14 02:04:12;;;;;;;14.30;9.68;;;;;;;0.64;96.86;100117.55;1768742;80;21100;-68
2021/12/14 02:06:40;;;;;;;;;;;;;;;0.59;96.81;100118.28;1713062;83;21501;-67
2021/12/14 02:09:13;;;;;;;19.60;11.28;;;;;;;0.54;96.70;100119.00;1731350;82;20198;-67
2021/12/14 02:11:50;;;;;;;17.77;12.20;;;;;;;0.46;96.90;100109.88;1731470;83;21508;-67
2021/12/14 02:14:17;;;;;;;18.80;11.63;;;;;;;0.37;97.22;100114.83;1710440;83;20996;-67
2021/12/14 02:16:51;;;;;;;17.62;11.12;;;;;;;0.33;97.10;100106.34;1731511;83;21434;-67
2021/12/14 02:19:20;;;;;;;16.50;10.13;;;;;;;0.28;96.93;100104.04;1731134;83;21034;-67
2021/12/14 02:21:50;;;;;;;19.70;12.20;;;;;;;0.26;97.03;100108.89;1731547;83;21599;-67
2021/12/14 02:24:20;;;;;;;16.97;11.03;;;;;;;0.23;97.11;100110.17;1698410;83;21081;-66
2021/12/14 02:26:48;;;;;;;17.85;10.88;;;;;;;0.26;97.32;100117.83;1718317;83;20952;-67
2021/12/14 02:29:34;;;;;;;18.05;11.57;;;;;;;0.31;97.57;100108.46;1718339;83;21164;-68
2021/12/14 02:32:05;;;;;;;20.82;12.10;;;;;;;0.34;97.50;100108.53;1718241;83;21008;-67
2021/12/14 02:34:46;;;;;;;18.87;11.28;;;;;;;0.36;97.56;100103.67;1720185;82;20967;-67
2021/12/14 02:37:15;;;;;;;14.85;9.25;;;;;;;0.42;97.68;100104.63;1719719;83;20936;-68
2021/12/14 02:42:15;;;;;;;19.35;11.48;;;;;;;0.51;97.50;100104.56;1680948;84;22422;-67
2021/12/14 02:44:48;;;;;;;17.80;11.75;;;;;;;0.44;97.27;100103.34;1719712;82;21066;-67
2021/12/14 02:47:16;;;;;;;21.90;12.33;;;;;;;0.39;97.27;100103.23;1719982;83;20987;-67
2021/12/14 02:49:43;;;;;;;15.08;9.80;;;;;;;0.35;97.24;100106.94;1690956;84;20869;-67
2021/12/14 02:52:13;;;;;;;16.07;10.98;;;;;;;0.30;97.15;100110.05;1719904;82;20999;-68
2021/12/14 02:54:46;;;;;;;18.92;9.70;;;;;;;0.22;97.13;100105.83;1719862;82;21043;-67
2021/12/14 02:57:21;;;;;;;15.70;9.95;;;;;;;0.23;97.38;100106.11;1719902;83;20910;-68
2021/12/14 02:59:48;;;;;;;14.70;10.15;;;;;;;0.29;97.70;100109.77;1709398;83;21417;-67
2021/12/14 03:02:20;;;;;;;17.77;10.28;;;;;;;0.37;97.87;100110.77;1709356;83;20942;-67
2021/12/14 03:04:55;;;;;;;17.23;10.38;;;;;;;0.39;97.76;100111.36;1720410;83;21048;-67
2021/12/14 03:07:26;;;;;;;18.07;10.63;;;;;;;0.35;97.54;100112.88;1719857;83;22196;-67
2021/12/14 03:10:05;;;;;;;16.52;10.82;;;;;;;0.38;97.84;100111.05;1720217;82;21616;-67
2021/12/14 03:12:36;;;;;;;17.03;11.33;;;;;;;0.37;97.86;100114.83;1685879;83;20949;-67
2021/12/14 03:15:21;;;;;;;20.08;12.03;;;;;;;0.30;97.79;100111.41;1709657;83;20945;-67
2021/12/14 03:17:55;;;;;;;16.40;10.65;;;;;;;0.24;97.93;100115.36;1719523;82;21024;-68
2021/12/14 03:20:29;;;;;;;17.65;11.73;;;;;;;0.20;97.99;100112.84;1719666;82;21517;-67
2021/12/14 03:23:09;;;;;;;19.80;12.37;;;;;;;0.19;98.04;100113.89;1733537;80;20945;-68
2021/12/14 03:25:42;;;;;;;16.50;11.38;;;;;;;0.22;98.25;100108.54;1741647;81;20944;-67
2021/12/14 03:28:13;;;;;;;19.35;11.68;;;;;;;0.24;98.28;100118.59;1763224;81;20998;-68
2021/12/14 03:30:47;;;;;;;17.90;12.45;;;;;;;0.27;98.36;100115.95;1763688;81;20995;-67
2021/12/14 03:33:19;;;;;;;18.70;11.70;;;;;;;0.33;98.47;100123.97;1763171;81;21127;-67
2021/12/14 03:35:54;;;;;;;16.95;11.15;;;;;;;0.35;98.46;100118.30;1763372;81;20932;-68
2021/12/14 03:38:34;;;;;;;17.37;10.53;;;;;;;0.38;98.29;100118.34;1763251;81;20996;-67
2021/12/14 03:41:11;;;;;;;16.02;10.85;;;;;;;0.33;98.12;100115.83;1741690;81;21007;-68
2021/12/14 03:43:45;;;;;;;16.42;10.05;;;;;;;0.36;98.26;100116.71;1726482;82;20971;-67
2021/12/14 03:46:15;;;;;;;16.30;10.28;;;;;;;0.35;97.99;100121.85;1763521;81;21121;-68
2021/12/14 03:48:41;;;;;;;16.60;10.68;;;;;;;0.29;97.80;100119.27;1763351;81;21046;-68
2021/12/14 03:51:09;;;;;;;15.40;9.75;;;;;;;0.20;97.53;100117.44;1741556;81;21039;-68
2021/12/14 03:53:36;;;;;;;25.65;10.50;;;;;;;0.14;97.63;100119.19;1763352;81;20968;-68
2021/12/14 03:56:05;;;;;;;16.77;9.75;;;;;;;0.16;97.70;100117.59;1763230;80;20876;-68
2021/12/14 03:58:38;;;;;;;16.82;10.50;;;;;;;0.14;97.66;100115.13;1741509;81;21694;-67
2021/12/14 04:01:20;;;;;;;16.32;9.93;;;;;;;0.18;97.84;100120.91;1763591;81;20873;-67
2021/12/14 04:03:52;;;;;;;19.73;12.90;;;;;;;0.24;97.98;100128.08;1763290;81;20971;-67
2021/12/14 04:06:21;;;;;;;21.15;12.95;;;;;;;0.25;97.82;100127.05;1761825;81;20979;-67
2021/12/14 04:08:48;;;;;;;19.45;12.00;;;;;;;0.27;97.83;100129.52;1763416;81;21063;-68
2021/12/14 04:11:15;;;;;;;24.37;14.63;;;;;;;0.28;97.66;100136.57;1763572;81;21465;-67
2021/12/14 04:13:50;;;;;;;37.13;19.17;;;;;;;0.20;97.45;100134.53;1763435;81;20916;-67
2021/12/14 04:16:22;;;;;;;31.62;17.42;;;;;;;0.15;97.47;100137.12;1741423;81;21384;-67
2021/12/14 04:18:50;;;;;;;28.52;16.67;;;;;;;0.17;97.61;100136.34;1763147;81;20988;-66
2021/12/14 04:21:22;;;;;;;21.73;13.00;;;;;;;0.19;97.66;100135.58;1763343;80;21059;-67
2021/12/14 04:23:51;;;;;;;18.57;11.65;;;;;;;0.22;97.74;100135.09;1761704;81;21923;-67
2021/12/14 04:26:19;;;;;;;19.00;11.40;;;;;;;0.28;97.82;100133.86;1760049;81;21097;-67
2021/12/14 04:28:53;;;;;;;17.92;11.18;;;;;;;0.26;97.56;100136.01;1736404;81;20857;-66
2021/12/14 04:31:21;;;;;;;19.10;11.05;;;;;;;0.19;97.39;100135.58;1760035;81;21464;-67
2021/12/14 04:33:51;;;;;;;19.67;11.70;;;;;;;0.16;97.37;100137.41;1760014;81;21035;-67
2021/12/14 04:36:24;;;;;;;21.20;12.15;;;;;;;0.14;97.41;100138.72;1760507;81;21141;-66
2021/12/14 04:38:57;;;;;;;20.60;12.10;;;;;;;0.13;97.59;100143.83;1760000;81;20980;-66
2021/12/14 04:52:29;;;;;;;20.35;12.50;;;;;;;0.09;97.90;100142.94;1712013;81;20977;-67
2021/12/14 04:55:03;;;;;;;19.73;12.15;;;;;;;0.15;98.04;100146.61;1736610;81;20936;-67
2021/12/14 04:57:43;;;;;;;18.25;11.45;;;;;;;0.17;97.97;100151.80;1760174;81;20995;-66
2021/12/14 05:00:31;;;;;;;18.32;11.48;;;;;;;0.23;98.17;100154.39;1760214;81;21476;-67
2021/12/14 05:03:03;;;;;;;16.77;11.30;;;;;;;0.30;98.24;100154.79;1736159;81;21074;-67
2021/12/14 05:05:45;;;;;;;19.48;11.78;;;;;;;0.35;98.14;100160.33;1736493;81;21488;-67
2021/12/14 05:11:01;;;;;;;22.85;13.13;;;;;;;0.32;97.88;100164.88;1760254;81;20975;-67
2021/12/14 05:13:36;;;;;;;25.75;12.80;;;;;;;0.32;97.75;100167.59;1760138;81;20927;-68
2021/12/14 05:16:04;;;;;;;18.20;10.53;;;;;;;0.31;97.69;100169.98;1736923;81;21123;-66
2021/12/14 05:18:32;;;;;;;19.25;12.28;;;;;;;0.23;97.62;100170.66;1760157;81;20893;-67
2021/12/14 05:21:00;;;;;;;23.18;12.75;;;;;;;0.16;97.49;100174.00;1760429;81;21535;-67
2021/12/14 05:23:31;;;;;;;21.00;12.35;;;;;;;0.12;97.65;100176.88;1712286;81;21023;-68
2021/12/14 05:26:02;;;;;;;20.65;12.25;;;;;;;0.12;97.81;100172.80;1713148;81;20961;-67
2021/12/14 05:28:32;;;;;;;17.80;11.70;;;;;;;0.10;97.81;100176.30;1719828;82;21909;-67
2021/12/14 05:31:04;;;;;;;21.17;13.35;;;;;;;0.11;97.94;100178.78;1720047;83;21537;-67
2021/12/14 05:33:35;;;;;;;20.55;13.00;;;;;;;0.11;97.96;100182.01;1719967;82;20969;-67
2021/12/14 05:36:09;;;;;;;20.50;11.53;;;;;;;0.10;98.59;100174.95;1718835;82;21004;-66
2021/12/14 05:38:51;;;;;;;19.50;12.28;;;;;;;0.13;99.20;100185.84;1720036;83;21434;-67
2021/12/14 05:43:43;;;;;;;21.45;12.82;;;;;;;0.19;99.64;100181.66;1684149;82;20977;-68
2021/12/14 05:46:20;;;;;;;22.17;12.73;;;;;;;0.18;99.66;100175.95;1720157;82;20882;-66
2021/12/14 05:48:49;;;;;;;26.45;14.00;;;;;;;0.18;99.64;100180.54;1702617;83;21004;-67
2021/12/14 05:51:16;;;;;;;22.30;12.95;;;;;;;0.23;99.85;100180.66;1684851;83;21430;-67
2021/12/14 05:53:45;;;;;;;23.60;13.45;;;;;;;0.29;99.88;100178.91;1709506;83;21015;-67
2021/12/14 05:56:17;;;;;;;26.40;13.60;;;;;;;0.32;99.66;100186.56;1720074;82;20881;-67
2021/12/14 05:58:45;;;;;;;21.12;12.90;;;;;;;0.34;99.48;100192.59;1719948;82;20997;-68
2021/12/14 06:01:14;;;;;;;21.95;13.72;;;;;;;0.39;99.44;100186.45;1720128;83;21541;-67
2021/12/14 06:03:50;;;;;;;26.55;13.93;;;;;;;0.45;99.53;100187.69;1709537;83;20976;-67
2021/12/14 06:06:37;;;;;;;25.05;13.78;;;;;;;0.47;99.22;100191.00;1720259;83;21794;-68
2021/12/14 06:09:14;;;;;;;26.68;14.83;;;;;;;0.35;98.64;100195.06;1709620;83;21562;-67
2021/12/14 06:11:44;;;;;;;24.50;14.23;;;;;;;0.27;98.80;100191.34;1719903;82;21017;-67
2021/12/14 06:14:20;;;;;;;22.90;14.35;;;;;;;0.20;98.67;100190.63;1719942;82;21029;-67
2021/12/14 06:16:51;;;;;;;22.77;14.10;;;;;;;0.21;98.94;100189.03;1720189;83;20993;-68
2021/12/14 06:19:22;;;;;;;24.00;14.20;;;;;;;0.28;99.15;100186.20;1709481;83;21088;-68
2021/12/14 06:21:56;;;;;;;20.52;13.08;;;;;;;0.32;99.13;100188.77;1720267;82;28185;-67
2021/12/14 06:24:24;;;;;;;21.97;13.62;;;;;;;0.29;98.74;100189.76;1722982;81;20933;-66
2021/12/14 06:26:54;;;;;;;26.90;14.03;;;;;;;0.21;98.64;100188.20;1760067;81;20983;-67
2021/12/14 06:29:36;;;;;;;21.07;12.98;;;;;;;0.23;98.89;100195.58;1760428;81;22130;-67
2021/12/14 06:32:08;;;;;;;;;;;;;;;0.21;98.80;100198.52;1774916;80;20853;-67
2021/12/14 06:34:34;;;;;;;24.75;13.90;;;;;;;0.19;98.84;100207.41;1773209;80;20077;-68
2021/12/14 06:37:52;;;;;;;27.87;15.68;;;;;;;0.24;99.01;100206.70;1773509;81;21012;-68
2021/12/14 06:40:12;;;;;;;23.50;13.90;;;;;;;0.23;98.82;100204.55;1770605;81;21393;-67
2021/12/14 06:42:43;;;;;;;26.17;15.20;;;;;;;0.20;98.85;100205.02;1751677;81;20881;-67
2021/12/14 06:45:27;;;;;;;22.77;14.58;;;;;;;0.21;98.88;100206.66;1773211;80;21159;-68
2021/12/14 06:48:04;;;;;;;26.52;14.15;;;;;;;0.19;98.74;100210.13;1773539;81;20872;-68
2021/12/14 06:50:41;;;;;;;26.42;15.08;;;;;;;0.14;98.64;100206.48;1773511;80;20936;-69
2021/12/14 06:53:13;;;;;;;23.52;14.55;;;;;;;0.15;99.21;100202.70;1751484;81;20916;-67
2021/12/14 06:56:00;;;;;;;25.57;14.23;;;;;;;0.11;99.19;100199.63;1773674;81;20959;-67
2021/12/14 06:58:33;;;;;;;29.92;15.40;;;;;;;0.13;99.30;100204.81;1770221;81;21940;-67
2021/12/14 07:01:11;;;;;;;24.37;13.95;;;;;;;0.15;99.49;100199.47;1773260;80;21504;-67
2021/12/14 07:03:45;;;;;;;23.60;14.73;;;;;;;0.23;99.43;100206.42;1773895;81;20976;-68
2021/12/14 07:06:23;;;;;;;21.95;14.83;;;;;;;0.27;99.27;100210.84;1773436;81;21007;-68
2021/12/14 07:08:54;;;;;;;23.77;14.98;;;;;;;0.24;99.02;100203.99;1751327;81;21023;-68
2021/12/14 07:11:23;;;;;;;25.08;15.00;;;;;;;0.17;98.96;100206.81;1773460;81;21158;-68
2021/12/14 07:13:52;;;;;;;26.20;14.83;;;;;;;0.21;99.26;100212.59;1773581;81;21011;-68
2021/12/14 07:16:31;;;;;;;27.73;15.05;;;;;;;0.24;99.26;100214.31;1751321;81;21003;-68
2021/12/14 07:19:01;;;;;;;23.32;14.58;;;;;;;0.28;99.06;100215.20;1773731;81;21508;-68
2021/12/14 07:21:41;;;;;;;24.23;14.50;;;;;;;0.22;98.63;100216.43;1773754;81;20964;-68
2021/12/14 07:24:28;;;;;;;29.75;15.05;;;;;;;0.14;98.44;100211.35;1751609;81;21425;-69
2021/12/14 07:27:28;;;;;;;23.45;13.85;;;;;;;0.10;98.73;100209.63;1768471;80;21037;-68
2021/12/14 07:30:16;;;;;;;24.47;16.45;;;;;;;0.18;99.05;100215.26;1751241;81;20968;-68
2021/12/14 07:33:03;;;;;;;24.32;14.80;;;;;;;0.23;99.36;100215.39;1769111;81;21020;-68
2021/12/14 07:35:48;;;;;;;28.20;17.05;;;;;;;0.21;99.44;100213.44;1751538;81;20924;-67
2021/12/14 07:38:26;;;;;;;26.95;15.53;;;;;;;0.22;99.50;100209.66;1768870;81;21140;-67
2021/12/14 07:41:03;;;;;;;29.18;16.48;;;;;;;0.29;99.54;100210.89;1768956;81;20861;-67
2021/12/14 07:43:44;;;;;;;28.83;16.52;;;;;;;0.38;99.73;100204.60;1769045;81;21028;-67
2021/12/14 07:46:39;;;;;;;32.80;17.65;;;;;;;0.47;99.74;100209.98;1768778;80;21520;-67
2021/12/14 07:49:21;;;;;;;28.05;16.77;;;;;;;0.54;99.50;100213.94;1769006;81;20877;-67
2021/12/14 07:51:51;;;;;;;34.88;19.80;;;;;;;0.56;99.11;100219.12;1776431;80;21182;-68
2021/12/14 07:54:26;;;;;;;38.55;19.57;;;;;;;0.46;98.49;100223.23;1768956;81;26491;-67
2021/12/14 07:57:09;;;;;;;30.52;18.67;;;;;;;0.46;98.71;100223.78;1769233;81;20922;-67
2021/12/14 07:59:40;;;;;;;30.92;19.00;;;;;;;0.53;98.84;100230.45;1768934;81;20979;-69
2021/12/14 08:02:22;;;;;;;29.95;17.25;;;;;;;0.51;98.37;100225.78;1768801;80;45947;-69
2021/12/14 08:05:01;;;;;;;26.68;16.42;;;;;;;0.44;98.23;100226.73;1769158;81;21420;-67
2021/12/14 08:07:38;;;;;;;31.12;19.07;;;;;;;0.38;98.23;100219.52;1768838;81;20897;-69
2021/12/14 08:10:15;;;;;;;30.82;18.42;;;;;;;0.34;98.25;100223.22;1760512;80;20960;-68
2021/12/14 08:12:48;;;;;;;24.52;17.00;;;;;;;0.31;98.06;100216.91;1769004;81;20912;-67
2021/12/14 08:15:40;;;;;;;28.70;16.70;;;;;;;0.32;98.25;100219.11;1769203;81;26830;-67
2021/12/14 08:18:15;;;;;;;24.63;15.65;;;;;;;0.32;98.07;100216.39;1768991;81;21155;-69
2021/12/14 08:20:46;;;;;;;24.57;14.47;;;;;;;0.36;98.29;100216.20;1768944;81;20948;-68
2021/12/14 08:23:29;;;;;;;29.42;14.78;;;;;;;0.44;98.56;100211.81;1751709;81;20965;-69
2021/12/14 08:26:02;;;;;;;22.13;13.93;;;;;;;0.53;98.62;100214.98;1769046;81;20945;-67
2021/12/14 08:28:31;;;;;;;21.43;13.37;;;;;;;0.61;98.59;100211.09;1769275;81;20968;-67
2021/12/14 08:31:04;;;;;;;20.92;13.48;;;;;;;0.67;98.37;100209.31;1769205;80;21851;-68
2021/12/14 08:33:32;;;;;;;21.25;13.62;;;;;;;0.68;98.07;100206.91;1768987;81;20928;-68
2021/12/14 08:36:02;;;;;;;21.87;13.00;;;;;;;0.70;98.11;100215.09;1769133;81;21007;-68
2021/12/14 08:38:31;;;;;;;23.22;14.05;;;;;;;0.75;98.01;100215.73;1768903;80;20999;-69
2021/12/14 08:41:08;;;;;;;24.43;13.78;;;;;;;0.68;97.47;100219.92;1769188;81;21382;-67
2021/12/14 08:43:35;;;;;;;22.52;13.40;;;;;;;0.64;97.15;100217.41;1768404;80;21108;-67
2021/12/14 08:46:13;;;;;;;22.25;14.28;;;;;;;0.58;97.16;100219.72;1769224;80;21540;-68
2021/12/14 08:48:52;;;;;;;22.52;12.73;;;;;;;0.56;97.00;100221.83;1768963;81;20988;-68
2021/12/14 08:51:25;;;;;;;22.42;14.05;;;;;;;0.54;97.08;100218.00;1752049;81;20987;-69
2021/12/14 08:54:02;;;;;;;22.13;15.08;;;;;;;0.58;97.18;100215.65;1750228;81;20897;-66
2021/12/14 08:56:35;;;;;;;21.17;13.40;;;;;;;0.51;96.76;100216.29;1768636;80;21156;-67
2021/12/14 08:59:05;;;;;;;25.60;14.98;;;;;;;0.48;97.27;100214.86;1768910;80;20972;-67
2021/12/14 09:01:32;;;;;;;24.02;15.65;;;;;;;0.47;97.24;100214.57;1769319;81;20936;-68
2021/12/14 09:04:15;;;;;;;25.55;15.80;;;;;;;0.51;97.30;100210.34;1769177;81;20972;-67
2021/12/14 09:06:46;;;;;;;37.17;17.07;;;;;;;0.57;97.45;100213.45;1769658;80;20940;-68
2021/12/14 09:09:17;;;;;;;28.00;15.60;;;;;;;0.62;97.16;100206.48;1751466;81;21027;-69
2021/12/14 09:11:53;;;;;;;28.80;16.57;;;;;;;0.58;96.88;100208.87;1769026;81;20880;-68
2021/12/14 09:14:23;;;;;;;27.95;16.65;;;;;;;0.51;96.60;100212.22;1751322;81;20956;-68
2021/12/14 09:16:57;;;;;;;34.67;17.82;;;;;;;0.43;96.51;100212.86;1751957;81;21465;-68
2021/12/14 09:19:36;;;;;;;30.08;17.90;;;;;;;0.43;96.82;100211.50;1751688;81;22800;-69
2021/12/14 09:22:07;;;;;;;29.87;17.57;;;;;;;0.39;96.60;100211.69;1769232;81;21522;-69
2021/12/14 09:24:37;;;;;;;32.73;16.20;;;;;;;0.36;96.69;100216.20;1769069;81;21458;-68
2021/12/14 09:27:10;;;;;;;29.02;15.05;;;;;;;0.34;96.83;100206.95;1748088;80;20940;-68
2021/12/14 09:29:36;;;;;;;26.93;15.20;;;;;;;0.40;97.04;100211.98;1721960;82;21012;-69
2021/12/14 09:32:07;;;;;;;29.85;14.78;;;;;;;0.48;97.26;100212.14;1707586;83;21472;-67
2021/12/14 09:34:35;;;;;;;24.77;14.60;;;;;;;0.53;97.00;100207.39;1742818;82;21126;-67
2021/12/14 09:37:02;;;;;;;23.62;15.28;;;;;;;0.50;96.63;100210.55;1721932;82;21000;-67
2021/12/14 09:39:35;;;;;;;25.75;15.78;;;;;;;0.44;96.62;100210.45;1707475;83;21087;-68
2021/12/14 09:42:08;;;;;;;25.17;14.38;;;;;;;0.42;96.58;100203.61;1723692;82;20934;-68
2021/12/14 09:44:36;;;;;;;26.97;15.70;;;;;;;0.38;96.45;100202.41;1723607;82;21489;-67
2021/12/14 09:47:09;;;;;;;27.58;15.53;;;;;;;0.28;96.53;100198.41;1728592;83;21956;-68
2021/12/14 09:49:38;;;;;;;31.68;19.02;;;;;;;0.21;96.71;100196.33;1727244;82;20988;-68
2021/12/14 09:52:13;;;;;;;27.70;16.52;;;;;;;0.20;96.80;100199.59;1728460;83;20940;-68
2021/12/14 09:54:40;;;;;;;34.63;19.65;;;;;;;0.18;96.84;100199.00;1742832;82;20995;-68
2021/12/14 09:57:36;;;;;;;30.50;18.32;;;;;;;0.18;96.84;100197.64;1743270;82;20881;-68
2021/12/14 10:00:16;;;;;;;25.20;15.20;;;;;;;0.15;96.83;100192.69;1727931;82;21178;-68
2021/12/14 10:02:48;;;;;;;28.77;16.73;;;;;;;0.17;97.01;100195.97;1743506;82;21060;-68
2021/12/14 10:05:24;;;;;;;23.22;15.18;;;;;;;0.20;97.12;100190.11;1697883;83;20954;-67
2021/12/14 10:07:50;;;;;;;28.70;16.97;;;;;;;0.23;97.19;100188.28;1720066;83;21042;-67
2021/12/14 10:10:18;;;;;;;27.62;16.95;;;;;;;0.18;96.87;100189.51;1704796;82;21424;-67
2021/12/14 10:12:53;;;;;;;23.62;13.85;;;;;;;0.16;96.96;100182.66;1740392;81;21818;-67
2021/12/14 10:15:46;;;;;;;22.95;14.85;;;;;;;0.19;97.18;100186.25;1704602;82;20994;-65
2021/12/14 10:18:20;;;;;;;22.60;14.07;;;;;;;0.23;97.15;100184.73;1709868;82;21486;-65
2021/12/14 10:20:52;;;;;;;25.97;14.33;;;;;;;0.32;97.42;100181.98;1723420;82;21502;-68
2021/12/14 10:23:21;;;;;;;19.93;13.53;;;;;;;0.39;97.40;100175.09;1736138;81;20987;-68
2021/12/14 10:25:49;;;;;;;21.48;14.15;;;;;;;0.45;97.22;100174.12;1719356;81;21193;-67
2021/12/14 10:28:15;;;;;;;23.62;13.08;;;;;;;0.48;97.19;100178.24;1696831;83;21028;-69
2021/12/14 10:30:47;;;;;;;22.55;13.28;;;;;;;0.52;97.14;100175.36;1718331;82;21013;-67
2021/12/14 10:33:15;;;;;;;23.35;14.75;;;;;;;0.58;97.16;100178.48;1735584;82;21059;-66
2021/12/14 10:35:50;;;;;;;26.20;14.47;;;;;;;0.57;96.65;100173.30;1703951;83;21540;-66
2021/12/14 10:38:25;;;;;;;25.43;14.25;;;;;;;0.55;96.66;100174.05;1728999;82;21317;-67
2021/12/14 10:43:49;;;;;;;28.87;15.35;;;;;;;0.59;96.57;100172.53;1724580;82;21059;-68
2021/12/14 10:46:24;;;;;;;29.77;16.82;;;;;;;0.56;96.34;100175.72;1730632;82;20996;-68
2021/12/14 10:48:55;;;;;;;28.38;16.30;;;;;;;0.54;96.30;100174.61;1703828;83;21034;-66
2021/12/14 10:51:28;;;;;;;26.40;14.95;;;;;;;0.52;96.25;100172.66;1704679;83;21148;-66
2021/12/14 10:53:55;;;;;;;27.98;15.13;;;;;;;0.50;96.21;100173.41;1716597;83;20926;-67
2021/12/14 10:56:30;;;;;;;24.45;15.43;;;;;;;0.48;96.11;100172.30;1715892;82;21016;-66
2021/12/14 10:58:59;;;;;;;24.90;14.43;;;;;;;0.47;96.08;100170.66;1730128;81;21693;-67
2021/12/14 11:01:31;;;;;;;27.48;13.48;;;;;;;0.44;96.04;100165.71;1716594;82;21040;-66
2021/12/14 11:04:00;;;;;;;21.30;11.88;;;;;;;0.39;95.98;100172.89;1735337;81;21126;-66
2021/12/14 11:06:32;;;;;;;19.75;12.23;;;;;;;0.30;96.17;100173.77;1703202;83;21048;-67
2021/12/14 11:11:44;;;;;;;21.68;11.75;;;;;;;0.12;97.00;100171.45;1719670;82;21047;-65
2021/12/14 11:14:13;;;;;;;21.10;12.37;;;;;;;0.05;97.48;100171.56;1729273;81;20999;-65
2021/12/14 11:19:49;;;;;;;23.57;12.83;;;;;;;-0.04;98.19;100163.49;1727268;82;21043;-65
2021/12/14 11:22:23;;;;;;;33.92;15.85;;;;;;;-0.07;98.57;100159.90;1719191;82;21075;-67
2021/12/14 11:25:05;;;;;;;;;;;;;;;-0.08;98.91;100162.30;1742326;82;21004;-67
2021/12/14 11:27:35;;;;;;;30.25;13.93;;;;;;;-0.09;99.10;100163.36;1733858;80;20149;-66
2021/12/14 11:30:28;;;;;;;28.12;15.05;;;;;;;-0.13;99.27;100167.06;1694093;82;21716;-65
2021/12/14 11:33:26;;;;;;;31.40;13.75;;;;;;;-0.15;99.48;100167.81;1749081;82;20980;-67
2021/12/14 11:36:01;;;;;;;36.13;16.73;;;;;;;-0.15;99.86;100170.53;1728183;82;21033;-66
2021/12/14 11:38:55;;;;;;;40.73;18.62;;;;;;;-0.16;100.00;100169.72;1714485;82;21004;-65
2021/12/14 11:41:31;;;;;;;33.78;15.93;;;;;;;-0.14;100.00;100174.91;1690688;82;20978;-66
2021/12/14 11:47:22;;;;;;;39.48;18.32;;;;;;;-0.09;100.00;100175.03;1718244;83;20989;-67
2021/12/14 11:49:51;;;;;;;34.30;17.15;;;;;;;-0.03;100.00;100175.97;1718668;81;21020;-68
2021/12/14 11:52:42;;;;;;;46.23;20.77;;;;;;;-0.03;100.00;100176.80;1716156;83;21435;-66
2021/12/14 11:55:39;;;;;;;39.42;17.40;;;;;;;-0.06;100.00;100177.27;1747833;81;21018;-66
2021/12/14 11:58:33;;;;;;;34.40;16.65;;;;;;;-0.07;100.00;100179.67;1748060;82;20969;-67
2021/12/14 12:01:21;;;;;;;42.45;19.45;;;;;;;-0.08;100.00;100176.67;1734443;82;20993;-66
2021/12/14 12:04:02;;;;;;;34.03;16.42;;;;;;;-0.10;100.00;100173.92;1691636;83;20949;-68
2021/12/14 12:09:47;;;;;;;45.90;22.73;;;;;;;-0.04;100.00;100177.88;1684486;85;21060;-67
2021/12/14 12:12:32;;;;;;;40.15;19.65;;;;;;;-0.11;100.00;100179.02;1701679;84;21566;-67
2021/12/14 12:15:16;;;;;;;51.48;20.12;;;;;;;-0.18;100.00;100175.06;1715355;81;21007;-67
2021/12/14 12:17:47;;;;;;;51.48;22.85;;;;;;;-0.16;100.00;100177.02;1729511;83;21011;-65
2021/12/14 12:20:39;;;;;;;55.92;25.25;;;;;;;-0.15;100.00;100175.95;1729602;81;21019;-65
2021/12/14 12:23:21;;;;;;;48.92;23.47;;;;;;;-0.16;100.00;100179.73;1720794;83;21039;-67
2021/12/14 12:26:00;;;;;;;50.00;22.77;;;;;;;-0.16;100.00;100178.38;1728587;82;20995;-67
2021/12/14 12:28:37;;;;;;;38.80;19.40;;;;;;;-0.17;100.00;100174.83;1716490;83;21028;-68